sensor_id;sensor_type;location;lat;lon;timestamp;P1;durP1;ratioP1;P2;durP2;ratioP2
40503;SDS011;42292;49.048;8.374;2022-08-19T00:00:34;17.88;;;15.63;;
40503;SDS011;42292;49.048;8.374;2022-08-19T00:03:03;17.02;;;15.27;;
40503;SDS011;42292;49.048;8.374;2022-08-19T00:05:30;18.70;;;15.88;;
40503;SDS011;42292;49.048;8.374;2022-08-19T00:07:56;17.80;;;15.32;;
40503;SDS011;42292;49.048;8.374;2022-08-19T00:10:25;17.70;;;15.97;;
40503;SDS011;42292;49.048;8.374;2022-08-19T00:12:50;17.13;;;15.43;;
40503;SDS011;42292;49.048;8.374;2022-08-19T00:15:19;17.25;;;15.45;;
40503;SDS011;42292;49.048;8.374;2022-08-19T00:17:46;19.55;;;15.70;;
40503;SDS011;42292;49.048;8.374;2022-08-19T00:20:15;18.80;;;16.90;;
40503;SDS011;42292;49.048;8.374;2022-08-19T00:22:43;19.83;;;17.63;;
40503;SDS011;42292;49.048;8.374;2022-08-19T00:25:10;19.30;;;17.23;;
40503;SDS011;42292;49.048;8.374;2022-08-19T00:27:36;19.80;;;17.80;;
40503;SDS011;42292;49.048;8.374;2022-08-19T00:30:03;19.17;;;17.17;;
40503;SDS011;42292;49.048;8.374;2022-08-19T00:32:34;19.50;;;17.15;;
40503;SDS011;42292;49.048;8.374;2022-08-19T00:35:00;19.67;;;16.52;;
40503;SDS011;42292;49.048;8.374;2022-08-19T00:37:28;19.60;;;16.92;;
40503;SDS011;42292;49.048;8.374;2022-08-19T00:39:54;20.15;;;17.60;;
40503;SDS011;42292;49.048;8.374;2022-08-19T00:42:21;19.15;;;17.15;;
40503;SDS011;42292;49.048;8.374;2022-08-19T00:44:47;17.65;;;15.85;;
40503;SDS011;42292;49.048;8.374;2022-08-19T00:47:14;19.00;;;15.30;;
40503;SDS011;42292;49.048;8.374;2022-08-19T00:49:41;17.85;;;16.00;;
40503;SDS011;42292;49.048;8.374;2022-08-19T00:52:18;18.02;;;16.20;;
40503;SDS011;42292;49.048;8.374;2022-08-19T00:54:49;17.70;;;15.90;;
40503;SDS011;42292;49.048;8.374;2022-08-19T00:57:18;18.23;;;15.10;;
40503;SDS011;42292;49.048;8.374;2022-08-19T00:59:51;17.65;;;15.88;;
40503;SDS011;42292;49.048;8.374;2022-08-19T01:02:21;16.70;;;15.07;;
40503;SDS011;42292;49.048;8.374;2022-08-19T01:04:47;16.88;;;15.13;;
40503;SDS011;42292;49.048;8.374;2022-08-19T01:07:15;18.02;;;16.23;;
40503;SDS011;42292;49.048;8.374;2022-08-19T01:09:41;18.08;;;16.17;;
40503;SDS011;42292;49.048;8.374;2022-08-19T01:12:07;19.33;;;17.33;;
40503;SDS011;42292;49.048;8.374;2022-08-19T01:14:39;19.17;;;16.88;;
40503;SDS011;42292;49.048;8.374;2022-08-19T01:17:06;19.25;;;17.15;;
40503;SDS011;42292;49.048;8.374;2022-08-19T01:19:35;19.35;;;16.90;;
40503;SDS011;42292;49.048;8.374;2022-08-19T01:24:35;19.88;;;16.58;;
40503;SDS011;42292;49.048;8.374;2022-08-19T01:27:04;18.97;;;16.47;;
40503;SDS011;42292;49.048;8.374;2022-08-19T01:29:37;17.80;;;15.90;;
40503;SDS011;42292;49.048;8.374;2022-08-19T01:32:05;18.77;;;16.80;;
40503;SDS011;42292;49.048;8.374;2022-08-19T01:34:32;21.30;;;17.50;;
40503;SDS011;42292;49.048;8.374;2022-08-19T01:37:00;18.67;;;16.70;;
40503;SDS011;42292;49.048;8.374;2022-08-19T01:39:35;19.73;;;17.73;;
40503;SDS011;42292;49.048;8.374;2022-08-19T01:42:02;20.13;;;16.83;;
40503;SDS011;42292;49.048;8.374;2022-08-19T01:44:31;18.88;;;16.88;;
40503;SDS011;42292;49.048;8.374;2022-08-19T01:46:57;18.55;;;16.65;;
40503;SDS011;42292;49.048;8.374;2022-08-19T01:49:23;19.08;;;16.88;;
40503;SDS011;42292;49.048;8.374;2022-08-19T01:51:54;17.70;;;15.90;;
40503;SDS011;42292;49.048;8.374;2022-08-19T01:54:21;18.25;;;16.20;;
40503;SDS011;42292;49.048;8.374;2022-08-19T01:56:53;18.63;;;16.63;;
40503;SDS011;42292;49.048;8.374;2022-08-19T01:59:28;18.17;;;16.38;;
40503;SDS011;42292;49.048;8.374;2022-08-19T02:01:55;18.33;;;16.40;;
40503;SDS011;42292;49.048;8.374;2022-08-19T02:04:22;18.67;;;16.77;;
40503;SDS011;42292;49.048;8.374;2022-08-19T02:06:50;19.33;;;17.33;;
40503;SDS011;42292;49.048;8.374;2022-08-19T02:09:15;19.45;;;17.50;;
40503;SDS011;42292;49.048;8.374;2022-08-19T02:11:43;20.25;;;18.25;;
40503;SDS011;42292;49.048;8.374;2022-08-19T02:14:13;21.05;;;18.80;;
40503;SDS011;42292;49.048;8.374;2022-08-19T02:16:42;18.60;;;16.60;;
40503;SDS011;42292;49.048;8.374;2022-08-19T02:19:07;19.50;;;17.50;;
40503;SDS011;42292;49.048;8.374;2022-08-19T02:21:36;18.45;;;16.63;;
40503;SDS011;42292;49.048;8.374;2022-08-19T02:24:04;19.88;;;17.73;;
40503;SDS011;42292;49.048;8.374;2022-08-19T02:26:29;19.20;;;17.40;;
40503;SDS011;42292;49.048;8.374;2022-08-19T02:28:58;19.55;;;17.55;;
40503;SDS011;42292;49.048;8.374;2022-08-19T02:31:24;19.42;;;17.25;;
40503;SDS011;42292;49.048;8.374;2022-08-19T02:33:55;18.92;;;16.80;;
40503;SDS011;42292;49.048;8.374;2022-08-19T02:36:22;19.67;;;17.63;;
40503;SDS011;42292;49.048;8.374;2022-08-19T02:38:52;19.65;;;17.75;;
40503;SDS011;42292;49.048;8.374;2022-08-19T02:41:21;18.52;;;16.65;;
40503;SDS011;42292;49.048;8.374;2022-08-19T02:43:54;20.00;;;17.98;;
40503;SDS011;42292;49.048;8.374;2022-08-19T02:46:23;20.42;;;17.73;;
40503;SDS011;42292;49.048;8.374;2022-08-19T02:48:54;19.35;;;17.35;;
40503;SDS011;42292;49.048;8.374;2022-08-19T02:51:23;19.02;;;17.15;;
40503;SDS011;42292;49.048;8.374;2022-08-19T02:53:50;20.08;;;17.95;;
40503;SDS011;42292;49.048;8.374;2022-08-19T02:56:19;19.17;;;17.27;;
40503;SDS011;42292;49.048;8.374;2022-08-19T02:58:49;20.08;;;18.08;;
40503;SDS011;42292;49.048;8.374;2022-08-19T03:01:22;19.80;;;17.73;;
40503;SDS011;42292;49.048;8.374;2022-08-19T03:03:52;21.33;;;19.23;;
40503;SDS011;42292;49.048;8.374;2022-08-19T03:06:22;21.30;;;19.10;;
40503;SDS011;42292;49.048;8.374;2022-08-19T03:08:48;22.35;;;20.08;;
40503;SDS011;42292;49.048;8.374;2022-08-19T03:13:43;21.98;;;19.50;;
40503;SDS011;42292;49.048;8.374;2022-08-19T03:16:09;21.65;;;19.42;;
40503;SDS011;42292;49.048;8.374;2022-08-19T03:18:36;22.97;;;20.67;;
40503;SDS011;42292;49.048;8.374;2022-08-19T03:21:02;21.37;;;19.17;;
40503;SDS011;42292;49.048;8.374;2022-08-19T03:23:30;22.77;;;20.45;;
40503;SDS011;42292;49.048;8.374;2022-08-19T03:25:58;21.83;;;19.23;;
40503;SDS011;42292;49.048;8.374;2022-08-19T03:28:29;21.15;;;18.95;;
40503;SDS011;42292;49.048;8.374;2022-08-19T03:30:59;21.02;;;18.77;;
40503;SDS011;42292;49.048;8.374;2022-08-19T03:33:31;21.58;;;19.38;;
40503;SDS011;42292;49.048;8.374;2022-08-19T03:38:30;21.43;;;19.27;;
40503;SDS011;42292;49.048;8.374;2022-08-19T03:41:01;21.60;;;19.40;;
40503;SDS011;42292;49.048;8.374;2022-08-19T03:43:31;21.50;;;19.30;;
40503;SDS011;42292;49.048;8.374;2022-08-19T03:46:01;21.10;;;19.00;;
40503;SDS011;42292;49.048;8.374;2022-08-19T03:48:32;21.75;;;19.55;;
40503;SDS011;42292;49.048;8.374;2022-08-19T03:50:58;20.50;;;18.50;;
40503;SDS011;42292;49.048;8.374;2022-08-19T03:53:25;21.20;;;19.00;;
40503;SDS011;42292;49.048;8.374;2022-08-19T03:55:52;19.83;;;17.77;;
40503;SDS011;42292;49.048;8.374;2022-08-19T03:58:24;20.50;;;18.40;;
40503;SDS011;42292;49.048;8.374;2022-08-19T04:00:50;20.77;;;18.63;;
40503;SDS011;42292;49.048;8.374;2022-08-19T04:03:18;22.00;;;19.80;;
40503;SDS011;42292;49.048;8.374;2022-08-19T04:05:44;21.52;;;19.33;;
40503;SDS011;42292;49.048;8.374;2022-08-19T04:08:10;22.63;;;19.92;;
40503;SDS011;42292;49.048;8.374;2022-08-19T04:10:36;21.60;;;19.50;;
40503;SDS011;42292;49.048;8.374;2022-08-19T04:13:05;22.45;;;19.95;;
40503;SDS011;42292;49.048;8.374;2022-08-19T04:15:32;24.27;;;21.83;;
40503;SDS011;42292;49.048;8.374;2022-08-19T04:18:04;22.15;;;19.85;;
40503;SDS011;42292;49.048;8.374;2022-08-19T04:20:37;24.98;;;21.27;;
40503;SDS011;42292;49.048;8.374;2022-08-19T04:23:12;22.73;;;20.33;;
40503;SDS011;42292;49.048;8.374;2022-08-19T04:25:41;24.15;;;21.65;;
40503;SDS011;42292;49.048;8.374;2022-08-19T04:28:08;25.40;;;22.80;;
40503;SDS011;42292;49.048;8.374;2022-08-19T04:30:41;25.63;;;23.02;;
40503;SDS011;42292;49.048;8.374;2022-08-19T04:33:10;25.13;;;22.63;;
40503;SDS011;42292;49.048;8.374;2022-08-19T04:35:41;24.58;;;21.98;;
40503;SDS011;42292;49.048;8.374;2022-08-19T04:38:09;23.02;;;20.73;;
40503;SDS011;42292;49.048;8.374;2022-08-19T04:41:09;24.67;;;21.90;;
40503;SDS011;42292;49.048;8.374;2022-08-19T04:43:52;23.87;;;21.47;;
40503;SDS011;42292;49.048;8.374;2022-08-19T04:46:20;24.20;;;21.80;;
40503;SDS011;42292;49.048;8.374;2022-08-19T04:48:45;23.37;;;20.97;;
40503;SDS011;42292;49.048;8.374;2022-08-19T04:51:11;24.93;;;22.03;;
40503;SDS011;42292;49.048;8.374;2022-08-19T04:53:38;24.30;;;21.73;;
40503;SDS011;42292;49.048;8.374;2022-08-19T04:56:13;25.00;;;22.40;;
40503;SDS011;42292;49.048;8.374;2022-08-19T04:58:40;23.38;;;20.98;;
40503;SDS011;42292;49.048;8.374;2022-08-19T05:01:07;23.38;;;21.02;;
40503;SDS011;42292;49.048;8.374;2022-08-19T05:03:35;24.42;;;21.83;;
40503;SDS011;42292;49.048;8.374;2022-08-19T05:06:08;26.13;;;21.95;;
40503;SDS011;42292;49.048;8.374;2022-08-19T05:08:36;25.50;;;22.90;;
40503;SDS011;42292;49.048;8.374;2022-08-19T05:11:09;24.77;;;22.20;;
40503;SDS011;42292;49.048;8.374;2022-08-19T05:13:36;24.30;;;21.73;;
40503;SDS011;42292;49.048;8.374;2022-08-19T05:16:07;23.10;;;20.67;;
40503;SDS011;42292;49.048;8.374;2022-08-19T05:18:34;25.40;;;20.58;;
40503;SDS011;42292;49.048;8.374;2022-08-19T05:21:18;23.40;;;20.92;;
40503;SDS011;42292;49.048;8.374;2022-08-19T05:24:06;21.70;;;19.58;;
40503;SDS011;42292;49.048;8.374;2022-08-19T05:26:40;21.45;;;19.25;;
40503;SDS011;42292;49.048;8.374;2022-08-19T05:29:10;21.08;;;18.80;;
40503;SDS011;42292;49.048;8.374;2022-08-19T05:31:36;20.27;;;18.23;;
40503;SDS011;42292;49.048;8.374;2022-08-19T05:34:04;20.70;;;18.70;;
40503;SDS011;42292;49.048;8.374;2022-08-19T05:36:35;21.73;;;19.45;;
40503;SDS011;42292;49.048;8.374;2022-08-19T05:39:04;22.48;;;19.52;;
40503;SDS011;42292;49.048;8.374;2022-08-19T05:41:34;21.88;;;19.67;;
40503;SDS011;42292;49.048;8.374;2022-08-19T05:44:05;20.85;;;18.80;;
40503;SDS011;42292;49.048;8.374;2022-08-19T05:46:34;22.05;;;19.65;;
40503;SDS011;42292;49.048;8.374;2022-08-19T05:49:03;21.90;;;19.40;;
40503;SDS011;42292;49.048;8.374;2022-08-19T05:51:30;22.87;;;20.37;;
40503;SDS011;42292;49.048;8.374;2022-08-19T05:53:59;21.93;;;19.63;;
40503;SDS011;42292;49.048;8.374;2022-08-19T05:56:29;22.73;;;19.70;;
40503;SDS011;42292;49.048;8.374;2022-08-19T05:58:55;22.52;;;19.70;;
40503;SDS011;42292;49.048;8.374;2022-08-19T06:01:23;23.00;;;20.70;;
40503;SDS011;42292;49.048;8.374;2022-08-19T06:03:52;22.03;;;19.73;;
40503;SDS011;42292;49.048;8.374;2022-08-19T06:06:19;22.10;;;19.80;;
40503;SDS011;42292;49.048;8.374;2022-08-19T06:08:47;20.90;;;18.67;;
40503;SDS011;42292;49.048;8.374;2022-08-19T06:11:17;21.27;;;18.25;;
40503;SDS011;42292;49.048;8.374;2022-08-19T06:13:57;22.40;;;19.43;;
40503;SDS011;42292;49.048;8.374;2022-08-19T06:16:27;20.25;;;18.27;;
40503;SDS011;42292;49.048;8.374;2022-08-19T06:18:54;21.35;;;19.08;;
40503;SDS011;42292;49.048;8.374;2022-08-19T06:21:25;21.08;;;18.92;;
40503;SDS011;42292;49.048;8.374;2022-08-19T06:23:53;21.50;;;19.40;;
40503;SDS011;42292;49.048;8.374;2022-08-19T06:26:19;20.55;;;18.27;;
40503;SDS011;42292;49.048;8.374;2022-08-19T06:28:46;19.70;;;17.75;;
40503;SDS011;42292;49.048;8.374;2022-08-19T06:31:23;19.80;;;17.08;;
40503;SDS011;42292;49.048;8.374;2022-08-19T06:33:51;20.65;;;18.45;;
40503;SDS011;42292;49.048;8.374;2022-08-19T06:36:23;21.63;;;17.98;;
40503;SDS011;42292;49.048;8.374;2022-08-19T06:38:56;20.80;;;17.20;;
40503;SDS011;42292;49.048;8.374;2022-08-19T06:41:23;21.30;;;17.67;;
40503;SDS011;42292;49.048;8.374;2022-08-19T06:43:50;26.13;;;17.30;;
40503;SDS011;42292;49.048;8.374;2022-08-19T06:46:16;20.75;;;17.35;;
40503;SDS011;42292;49.048;8.374;2022-08-19T06:48:46;18.77;;;16.95;;
40503;SDS011;42292;49.048;8.374;2022-08-19T06:51:18;19.63;;;17.63;;
40503;SDS011;42292;49.048;8.374;2022-08-19T06:53:52;19.20;;;17.20;;
40503;SDS011;42292;49.048;8.374;2022-08-19T06:56:22;18.83;;;16.70;;
40503;SDS011;42292;49.048;8.374;2022-08-19T06:59:06;20.15;;;18.05;;
40503;SDS011;42292;49.048;8.374;2022-08-19T07:01:46;18.38;;;16.55;;
40503;SDS011;42292;49.048;8.374;2022-08-19T07:04:18;19.50;;;17.52;;
40503;SDS011;42292;49.048;8.374;2022-08-19T07:06:47;19.65;;;17.65;;
40503;SDS011;42292;49.048;8.374;2022-08-19T07:09:15;19.58;;;17.05;;
40503;SDS011;42292;49.048;8.374;2022-08-19T07:11:46;18.33;;;16.25;;
40503;SDS011;42292;49.048;8.374;2022-08-19T07:14:15;18.65;;;16.65;;
40503;SDS011;42292;49.048;8.374;2022-08-19T07:16:42;18.10;;;16.30;;
40503;SDS011;42292;49.048;8.374;2022-08-19T07:19:10;17.47;;;15.43;;
40503;SDS011;42292;49.048;8.374;2022-08-19T07:21:36;17.45;;;15.55;;
40503;SDS011;42292;49.048;8.374;2022-08-19T07:24:04;16.27;;;14.77;;
40503;SDS011;42292;49.048;8.374;2022-08-19T07:26:31;17.47;;;15.63;;
40503;SDS011;42292;49.048;8.374;2022-08-19T07:29:01;16.95;;;15.10;;
40503;SDS011;42292;49.048;8.374;2022-08-19T07:31:29;14.80;;;13.50;;
40503;SDS011;42292;49.048;8.374;2022-08-19T07:33:55;15.68;;;14.13;;
40503;SDS011;42292;49.048;8.374;2022-08-19T07:36:25;15.48;;;13.98;;
40503;SDS011;42292;49.048;8.374;2022-08-19T07:38:57;15.60;;;14.00;;
40503;SDS011;42292;49.048;8.374;2022-08-19T07:41:28;15.02;;;13.43;;
40503;SDS011;42292;49.048;8.374;2022-08-19T07:43:59;14.30;;;12.80;;
40503;SDS011;42292;49.048;8.374;2022-08-19T07:46:28;12.68;;;11.50;;
40503;SDS011;42292;49.048;8.374;2022-08-19T07:49:00;12.95;;;11.65;;
40503;SDS011;42292;49.048;8.374;2022-08-19T07:51:27;12.98;;;11.80;;
40503;SDS011;42292;49.048;8.374;2022-08-19T07:53:53;13.07;;;11.55;;
40503;SDS011;42292;49.048;8.374;2022-08-19T07:56:19;13.18;;;11.88;;
40503;SDS011;42292;49.048;8.374;2022-08-19T07:58:51;12.75;;;11.40;;
40503;SDS011;42292;49.048;8.374;2022-08-19T08:01:19;12.60;;;11.35;;
40503;SDS011;42292;49.048;8.374;2022-08-19T08:03:50;12.43;;;10.95;;
40503;SDS011;42292;49.048;8.374;2022-08-19T08:06:37;12.52;;;11.32;;
40503;SDS011;42292;49.048;8.374;2022-08-19T08:09:26;13.05;;;11.65;;
40503;SDS011;42292;49.048;8.374;2022-08-19T08:11:59;12.15;;;11.05;;
40503;SDS011;42292;49.048;8.374;2022-08-19T08:14:32;11.88;;;10.85;;
40503;SDS011;42292;49.048;8.374;2022-08-19T08:17:00;13.13;;;10.57;;
40503;SDS011;42292;49.048;8.374;2022-08-19T08:19:27;11.88;;;10.63;;
40503;SDS011;42292;49.048;8.374;2022-08-19T08:21:56;12.27;;;11.10;;
40503;SDS011;42292;49.048;8.374;2022-08-19T08:24:24;11.38;;;10.32;;
40503;SDS011;42292;49.048;8.374;2022-08-19T08:26:50;12.60;;;11.13;;
40503;SDS011;42292;49.048;8.374;2022-08-19T08:29:18;11.07;;;10.05;;
40503;SDS011;42292;49.048;8.374;2022-08-19T08:31:44;10.75;;;9.68;;
40503;SDS011;42292;49.048;8.374;2022-08-19T08:34:15;10.00;;;8.88;;
40503;SDS011;42292;49.048;8.374;2022-08-19T08:36:42;10.63;;;9.52;;
40503;SDS011;42292;49.048;8.374;2022-08-19T08:39:10;9.27;;;8.18;;
40503;SDS011;42292;49.048;8.374;2022-08-19T08:45:18;8.63;;;7.25;;
40503;SDS011;42292;49.048;8.374;2022-08-19T08:47:42;9.27;;;7.70;;
40503;SDS011;42292;49.048;8.374;2022-08-19T08:50:16;8.48;;;7.32;;
40503;SDS011;42292;49.048;8.374;2022-08-19T08:52:48;9.50;;;6.93;;
40503;SDS011;42292;49.048;8.374;2022-08-19T08:55:22;7.50;;;6.78;;
40503;SDS011;42292;49.048;8.374;2022-08-19T09:00:36;9.55;;;7.65;;
40503;SDS011;42292;49.048;8.374;2022-08-19T09:03:06;8.40;;;7.55;;
40503;SDS011;42292;49.048;8.374;2022-08-19T09:08:33;7.93;;;6.38;;
40503;SDS011;42292;49.048;8.374;2022-08-19T09:11:04;7.57;;;6.60;;
40503;SDS011;42292;49.048;8.374;2022-08-19T09:13:41;7.60;;;6.85;;
40503;SDS011;42292;49.048;8.374;2022-08-19T09:16:29;9.60;;;7.00;;
40503;SDS011;42292;49.048;8.374;2022-08-19T09:19:05;7.93;;;6.33;;
40503;SDS011;42292;49.048;8.374;2022-08-19T09:21:33;6.93;;;6.22;;
40503;SDS011;42292;49.048;8.374;2022-08-19T09:24:00;8.30;;;6.47;;
40503;SDS011;42292;49.048;8.374;2022-08-19T09:26:29;8.25;;;6.90;;
40503;SDS011;42292;49.048;8.374;2022-08-19T09:29:00;7.72;;;6.53;;
40503;SDS011;42292;49.048;8.374;2022-08-19T09:31:27;7.22;;;6.57;;
40503;SDS011;42292;49.048;8.374;2022-08-19T09:33:54;8.05;;;6.40;;
40503;SDS011;42292;49.048;8.374;2022-08-19T09:36:22;7.72;;;6.57;;
40503;SDS011;42292;49.048;8.374;2022-08-19T09:38:54;6.60;;;5.90;;
40503;SDS011;42292;49.048;8.374;2022-08-19T09:41:25;6.88;;;6.18;;
40503;SDS011;42292;49.048;8.374;2022-08-19T09:43:52;15.98;;;6.10;;
40503;SDS011;42292;49.048;8.374;2022-08-19T09:46:21;8.00;;;6.60;;
40503;SDS011;42292;49.048;8.374;2022-08-19T09:48:48;7.55;;;6.78;;
40503;SDS011;42292;49.048;8.374;2022-08-19T09:51:17;6.47;;;5.78;;
40503;SDS011;42292;49.048;8.374;2022-08-19T09:53:51;7.45;;;6.40;;
40503;SDS011;42292;49.048;8.374;2022-08-19T09:56:24;6.53;;;5.55;;
40503;SDS011;42292;49.048;8.374;2022-08-19T09:58:49;6.05;;;5.43;;
40503;SDS011;42292;49.048;8.374;2022-08-19T10:01:25;6.35;;;5.75;;
40503;SDS011;42292;49.048;8.374;2022-08-19T10:03:53;15.93;;;7.10;;
40503;SDS011;42292;49.048;8.374;2022-08-19T10:06:21;7.45;;;6.18;;
40503;SDS011;42292;49.048;8.374;2022-08-19T10:08:54;7.28;;;5.18;;
40503;SDS011;42292;49.048;8.374;2022-08-19T10:11:22;8.52;;;5.43;;
40503;SDS011;42292;49.048;8.374;2022-08-19T10:13:48;8.18;;;5.25;;
40503;SDS011;42292;49.048;8.374;2022-08-19T10:16:16;6.05;;;5.05;;
40503;SDS011;42292;49.048;8.374;2022-08-19T10:18:44;6.60;;;6.03;;
40503;SDS011;42292;49.048;8.374;2022-08-19T10:21:14;7.50;;;4.97;;
40503;SDS011;42292;49.048;8.374;2022-08-19T10:23:42;7.00;;;5.47;;
40503;SDS011;42292;49.048;8.374;2022-08-19T10:26:10;7.47;;;5.00;;
40503;SDS011;42292;49.048;8.374;2022-08-19T10:28:40;7.35;;;5.45;;
40503;SDS011;42292;49.048;8.374;2022-08-19T10:31:09;5.68;;;5.10;;
40503;SDS011;42292;49.048;8.374;2022-08-19T10:33:37;6.13;;;5.53;;
40503;SDS011;42292;49.048;8.374;2022-08-19T10:36:14;7.05;;;5.70;;
40503;SDS011;42292;49.048;8.374;2022-08-19T10:38:44;6.20;;;5.60;;
40503;SDS011;42292;49.048;8.374;2022-08-19T10:41:16;6.70;;;5.82;;
40503;SDS011;42292;49.048;8.374;2022-08-19T10:43:43;5.90;;;5.13;;
40503;SDS011;42292;49.048;8.374;2022-08-19T10:46:11;5.85;;;5.10;;
40503;SDS011;42292;49.048;8.374;2022-08-19T10:48:38;8.93;;;6.55;;
40503;SDS011;42292;49.048;8.374;2022-08-19T10:51:05;7.00;;;5.78;;
40503;SDS011;42292;49.048;8.374;2022-08-19T10:53:49;6.10;;;5.32;;
40503;SDS011;42292;49.048;8.374;2022-08-19T10:56:18;6.20;;;5.60;;
40503;SDS011;42292;49.048;8.374;2022-08-19T10:59:03;5.55;;;5.07;;
40503;SDS011;42292;49.048;8.374;2022-08-19T11:01:30;7.68;;;6.85;;
40503;SDS011;42292;49.048;8.374;2022-08-19T11:03:59;8.77;;;6.80;;
40503;SDS011;42292;49.048;8.374;2022-08-19T11:06:29;7.15;;;6.25;;
40503;SDS011;42292;49.048;8.374;2022-08-19T11:08:57;8.20;;;6.50;;
40503;SDS011;42292;49.048;8.374;2022-08-19T11:11:25;6.88;;;5.50;;
40503;SDS011;42292;49.048;8.374;2022-08-19T11:13:51;6.82;;;5.60;;
40503;SDS011;42292;49.048;8.374;2022-08-19T11:16:20;7.47;;;6.03;;
40503;SDS011;42292;49.048;8.374;2022-08-19T11:18:51;6.50;;;5.80;;
40503;SDS011;42292;49.048;8.374;2022-08-19T11:21:21;5.82;;;5.32;;
40503;SDS011;42292;49.048;8.374;2022-08-19T11:23:57;6.30;;;4.95;;
40503;SDS011;42292;49.048;8.374;2022-08-19T11:26:28;6.47;;;5.70;;
40503;SDS011;42292;49.048;8.374;2022-08-19T11:28:55;6.82;;;5.50;;
40503;SDS011;42292;49.048;8.374;2022-08-19T11:31:28;6.20;;;5.57;;
40503;SDS011;42292;49.048;8.374;2022-08-19T11:33:58;7.90;;;5.27;;
40503;SDS011;42292;49.048;8.374;2022-08-19T11:36:28;5.75;;;5.15;;
40503;SDS011;42292;49.048;8.374;2022-08-19T11:38:54;6.10;;;5.50;;
40503;SDS011;42292;49.048;8.374;2022-08-19T11:41:22;6.05;;;5.13;;
40503;SDS011;42292;49.048;8.374;2022-08-19T11:43:51;6.90;;;6.03;;
40503;SDS011;42292;49.048;8.374;2022-08-19T11:46:19;5.90;;;5.30;;
40503;SDS011;42292;49.048;8.374;2022-08-19T11:48:47;6.05;;;5.10;;
40503;SDS011;42292;49.048;8.374;2022-08-19T11:51:16;5.40;;;4.80;;
40503;SDS011;42292;49.048;8.374;2022-08-19T11:53:46;5.50;;;5.00;;
40503;SDS011;42292;49.048;8.374;2022-08-19T11:56:12;5.35;;;4.82;;
40503;SDS011;42292;49.048;8.374;2022-08-19T11:58:38;5.28;;;4.78;;
40503;SDS011;42292;49.048;8.374;2022-08-19T12:01:05;5.70;;;5.18;;
40503;SDS011;42292;49.048;8.374;2022-08-19T12:03:38;6.30;;;5.70;;
40503;SDS011;42292;49.048;8.374;2022-08-19T12:06:08;5.53;;;5.03;;
40503;SDS011;42292;49.048;8.374;2022-08-19T12:08:40;6.10;;;5.28;;
40503;SDS011;42292;49.048;8.374;2022-08-19T12:11:08;5.55;;;5.05;;
40503;SDS011;42292;49.048;8.374;2022-08-19T12:13:36;4.82;;;4.40;;
40503;SDS011;42292;49.048;8.374;2022-08-19T12:16:07;6.13;;;5.05;;
40503;SDS011;42292;49.048;8.374;2022-08-19T12:18:40;6.00;;;4.80;;
40503;SDS011;42292;49.048;8.374;2022-08-19T12:21:11;5.60;;;4.75;;
40503;SDS011;42292;49.048;8.374;2022-08-19T12:23:41;5.70;;;5.10;;
40503;SDS011;42292;49.048;8.374;2022-08-19T12:26:11;5.05;;;4.55;;
40503;SDS011;42292;49.048;8.374;2022-08-19T12:28:37;4.90;;;4.10;;
40503;SDS011;42292;49.048;8.374;2022-08-19T12:31:03;4.78;;;4.38;;
40503;SDS011;42292;49.048;8.374;2022-08-19T12:33:29;5.13;;;4.67;;
40503;SDS011;42292;49.048;8.374;2022-08-19T12:35:59;6.10;;;4.82;;
40503;SDS011;42292;49.048;8.374;2022-08-19T12:38:29;12.07;;;4.95;;
40503;SDS011;42292;49.048;8.374;2022-08-19T12:40:58;4.88;;;4.38;;
40503;SDS011;42292;49.048;8.374;2022-08-19T12:43:23;7.53;;;4.45;;
40503;SDS011;42292;49.048;8.374;2022-08-19T12:45:49;6.03;;;4.10;;
40503;SDS011;42292;49.048;8.374;2022-08-19T12:48:17;4.65;;;4.10;;
40503;SDS011;42292;49.048;8.374;2022-08-19T12:50:43;5.25;;;4.75;;
40503;SDS011;42292;49.048;8.374;2022-08-19T12:53:10;5.20;;;4.30;;
40503;SDS011;42292;49.048;8.374;2022-08-19T12:55:36;5.20;;;4.47;;
40503;SDS011;42292;49.048;8.374;2022-08-19T12:58:02;4.10;;;3.70;;
40503;SDS011;42292;49.048;8.374;2022-08-19T13:00:28;5.60;;;3.97;;
40503;SDS011;42292;49.048;8.374;2022-08-19T13:02:56;3.90;;;3.58;;
40503;SDS011;42292;49.048;8.374;2022-08-19T13:05:26;7.22;;;4.50;;
40503;SDS011;42292;49.048;8.374;2022-08-19T13:07:54;4.70;;;4.30;;
40503;SDS011;42292;49.048;8.374;2022-08-19T13:10:21;5.57;;;4.10;;
40503;SDS011;42292;49.048;8.374;2022-08-19T13:12:52;4.95;;;4.45;;
40503;SDS011;42292;49.048;8.374;2022-08-19T13:15:18;6.70;;;4.00;;
40503;SDS011;42292;49.048;8.374;2022-08-19T13:17:47;3.80;;;3.47;;
40503;SDS011;42292;49.048;8.374;2022-08-19T13:20:17;4.28;;;3.88;;
40503;SDS011;42292;49.048;8.374;2022-08-19T13:22:48;4.13;;;3.83;;
40503;SDS011;42292;49.048;8.374;2022-08-19T13:25:16;4.18;;;3.15;;
40503;SDS011;42292;49.048;8.374;2022-08-19T13:27:44;4.00;;;2.70;;
40503;SDS011;42292;49.048;8.374;2022-08-19T13:30:14;3.20;;;2.90;;
40503;SDS011;42292;49.048;8.374;2022-08-19T13:33:00;2.60;;;2.33;;
40503;SDS011;42292;49.048;8.374;2022-08-19T13:35:50;3.80;;;2.67;;
40503;SDS011;42292;49.048;8.374;2022-08-19T13:38:22;3.22;;;2.50;;
40503;SDS011;42292;49.048;8.374;2022-08-19T13:40:49;3.20;;;2.53;;
40503;SDS011;42292;49.048;8.374;2022-08-19T13:43:17;2.53;;;2.30;;
40503;SDS011;42292;49.048;8.374;2022-08-19T13:45:46;2.13;;;1.92;;
40503;SDS011;42292;49.048;8.374;2022-08-19T13:48:12;3.65;;;2.17;;
40503;SDS011;42292;49.048;8.374;2022-08-19T13:50:39;2.38;;;2.17;;
40503;SDS011;42292;49.048;8.374;2022-08-19T13:53:10;2.50;;;2.10;;
40503;SDS011;42292;49.048;8.374;2022-08-19T13:55:37;3.08;;;2.40;;
40503;SDS011;42292;49.048;8.374;2022-08-19T13:58:04;2.20;;;2.00;;
40503;SDS011;42292;49.048;8.374;2022-08-19T14:00:34;2.58;;;2.38;;
40503;SDS011;42292;49.048;8.374;2022-08-19T14:03:04;3.00;;;2.70;;
40503;SDS011;42292;49.048;8.374;2022-08-19T14:05:33;3.22;;;2.53;;
40503;SDS011;42292;49.048;8.374;2022-08-19T14:08:01;3.10;;;2.80;;
40503;SDS011;42292;49.048;8.374;2022-08-19T14:10:27;3.58;;;3.05;;
40503;SDS011;42292;49.048;8.374;2022-08-19T14:12:56;3.20;;;2.90;;
40503;SDS011;42292;49.048;8.374;2022-08-19T14:15:25;3.35;;;3.05;;
40503;SDS011;42292;49.048;8.374;2022-08-19T14:17:51;3.22;;;2.92;;
40503;SDS011;42292;49.048;8.374;2022-08-19T14:20:17;3.67;;;3.10;;
40503;SDS011;42292;49.048;8.374;2022-08-19T14:22:46;3.33;;;2.80;;
40503;SDS011;42292;49.048;8.374;2022-08-19T14:25:16;3.33;;;2.95;;
40503;SDS011;42292;49.048;8.374;2022-08-19T14:27:47;3.20;;;2.90;;
40503;SDS011;42292;49.048;8.374;2022-08-19T14:30:14;3.28;;;2.92;;
40503;SDS011;42292;49.048;8.374;2022-08-19T14:32:42;3.58;;;2.95;;
40503;SDS011;42292;49.048;8.374;2022-08-19T14:35:10;3.08;;;2.78;;
40503;SDS011;42292;49.048;8.374;2022-08-19T14:37:43;3.50;;;2.60;;
40503;SDS011;42292;49.048;8.374;2022-08-19T14:40:13;2.85;;;2.65;;
40503;SDS011;42292;49.048;8.374;2022-08-19T14:42:41;3.70;;;2.80;;
40503;SDS011;42292;49.048;8.374;2022-08-19T14:45:10;3.03;;;2.70;;
40503;SDS011;42292;49.048;8.374;2022-08-19T14:47:36;4.20;;;3.15;;
40503;SDS011;42292;49.048;8.374;2022-08-19T14:50:03;5.50;;;3.15;;
40503;SDS011;42292;49.048;8.374;2022-08-19T14:52:31;3.90;;;2.88;;
40503;SDS011;42292;49.048;8.374;2022-08-19T14:54:57;3.10;;;2.90;;
40503;SDS011;42292;49.048;8.374;2022-08-19T14:57:25;3.50;;;2.90;;
40503;SDS011;42292;49.048;8.374;2022-08-19T14:59:53;4.07;;;3.00;;
40503;SDS011;42292;49.048;8.374;2022-08-19T15:02:21;5.47;;;3.10;;